sensor_id;sensor_type;location;lat;lon;timestamp;P1;durP1;ratioP1;P2;durP2;ratioP2
34144;SDS011;20422;53.014;8.886;2022-09-21T00:03:40;10.33;;;5.77;;
34144;SDS011;20422;53.014;8.886;2022-09-21T00:06:11;10.50;;;5.45;;
34144;SDS011;20422;53.014;8.886;2022-09-21T00:08:36;6.63;;;5.13;;
34144;SDS011;20422;53.014;8.886;2022-09-21T00:11:02;11.65;;;6.03;;
34144;SDS011;20422;53.014;8.886;2022-09-21T00:13:28;12.27;;;5.32;;
34144;SDS011;20422;53.014;8.886;2022-09-21T00:15:54;14.43;;;5.72;;
34144;SDS011;20422;53.014;8.886;2022-09-21T00:18:20;11.45;;;5.13;;
34144;SDS011;20422;53.014;8.886;2022-09-21T00:20:46;7.00;;;5.22;;
34144;SDS011;20422;53.014;8.886;2022-09-21T00:23:12;7.25;;;5.10;;
34144;SDS011;20422;53.014;8.886;2022-09-21T00:25:37;7.20;;;5.05;;
34144;SDS011;20422;53.014;8.886;2022-09-21T00:28:03;12.25;;;4.65;;
34144;SDS011;20422;53.014;8.886;2022-09-21T00:30:28;8.43;;;5.70;;
34144;SDS011;20422;53.014;8.886;2022-09-21T00:32:54;8.95;;;5.20;;
34144;SDS011;20422;53.014;8.886;2022-09-21T00:35:19;6.68;;;4.47;;
34144;SDS011;20422;53.014;8.886;2022-09-21T00:37:44;9.13;;;5.40;;
34144;SDS011;20422;53.014;8.886;2022-09-21T00:40:10;13.98;;;6.00;;
34144;SDS011;20422;53.014;8.886;2022-09-21T00:42:36;8.68;;;4.72;;
34144;SDS011;20422;53.014;8.886;2022-09-21T00:45:02;10.38;;;4.38;;
34144;SDS011;20422;53.014;8.886;2022-09-21T00:47:32;9.40;;;4.95;;
34144;SDS011;20422;53.014;8.886;2022-09-21T00:50:00;6.22;;;4.13;;
34144;SDS011;20422;53.014;8.886;2022-09-21T00:52:30;8.30;;;4.82;;
34144;SDS011;20422;53.014;8.886;2022-09-21T00:55:21;7.97;;;4.18;;
34144;SDS011;20422;53.014;8.886;2022-09-21T00:58:17;7.40;;;4.88;;
34144;SDS011;20422;53.014;8.886;2022-09-21T01:03:11;4.67;;;3.90;;
34144;SDS011;20422;53.014;8.886;2022-09-21T01:05:37;8.10;;;4.22;;
34144;SDS011;20422;53.014;8.886;2022-09-21T01:08:03;5.97;;;3.80;;
34144;SDS011;20422;53.014;8.886;2022-09-21T01:10:33;5.72;;;4.03;;
34144;SDS011;20422;53.014;8.886;2022-09-21T01:13:24;6.47;;;4.57;;
34144;SDS011;20422;53.014;8.886;2022-09-21T01:18:36;10.05;;;4.38;;
34144;SDS011;20422;53.014;8.886;2022-09-21T01:21:30;10.90;;;4.88;;
34144;SDS011;20422;53.014;8.886;2022-09-21T01:29:21;6.72;;;4.55;;
34144;SDS011;20422;53.014;8.886;2022-09-21T01:31:57;11.27;;;5.22;;
34144;SDS011;20422;53.014;8.886;2022-09-21T01:34:32;11.63;;;4.45;;
34144;SDS011;20422;53.014;8.886;2022-09-21T01:37:04;7.18;;;4.80;;
34144;SDS011;20422;53.014;8.886;2022-09-21T01:39:34;10.05;;;3.97;;
34144;SDS011;20422;53.014;8.886;2022-09-21T01:42:02;9.93;;;5.00;;
34144;SDS011;20422;53.014;8.886;2022-09-21T01:44:30;6.97;;;4.13;;
34144;SDS011;20422;53.014;8.886;2022-09-21T01:47:00;7.75;;;4.85;;
34144;SDS011;20422;53.014;8.886;2022-09-21T01:49:31;10.30;;;4.65;;
34144;SDS011;20422;53.014;8.886;2022-09-21T01:52:27;9.05;;;4.55;;
34144;SDS011;20422;53.014;8.886;2022-09-21T01:54:55;6.63;;;4.53;;
34144;SDS011;20422;53.014;8.886;2022-09-21T01:57:29;6.07;;;4.13;;
34144;SDS011;20422;53.014;8.886;2022-09-21T01:59:56;5.75;;;4.00;;
34144;SDS011;20422;53.014;8.886;2022-09-21T02:02:33;7.32;;;4.20;;
34144;SDS011;20422;53.014;8.886;2022-09-21T02:05:04;15.25;;;5.13;;
34144;SDS011;20422;53.014;8.886;2022-09-21T02:07:33;8.10;;;3.95;;
34144;SDS011;20422;53.014;8.886;2022-09-21T02:10:00;12.55;;;4.50;;
34144;SDS011;20422;53.014;8.886;2022-09-21T02:12:27;6.75;;;4.40;;
34144;SDS011;20422;53.014;8.886;2022-09-21T02:14:52;8.65;;;3.97;;
34144;SDS011;20422;53.014;8.886;2022-09-21T02:17:28;5.07;;;3.47;;
34144;SDS011;20422;53.014;8.886;2022-09-21T02:20:07;7.65;;;4.13;;
34144;SDS011;20422;53.014;8.886;2022-09-21T02:32:01;6.43;;;4.28;;
34144;SDS011;20422;53.014;8.886;2022-09-21T02:37:23;14.18;;;5.82;;
34144;SDS011;20422;53.014;8.886;2022-09-21T02:42:55;10.48;;;4.50;;
34144;SDS011;20422;53.014;8.886;2022-09-21T02:45:29;13.25;;;5.03;;
34144;SDS011;20422;53.014;8.886;2022-09-21T02:47:59;9.93;;;3.92;;
34144;SDS011;20422;53.014;8.886;2022-09-21T02:50:32;7.40;;;4.20;;
34144;SDS011;20422;53.014;8.886;2022-09-21T02:53:03;8.02;;;4.22;;
34144;SDS011;20422;53.014;8.886;2022-09-21T02:55:31;10.38;;;4.53;;
34144;SDS011;20422;53.014;8.886;2022-09-21T02:57:57;7.38;;;4.05;;
34144;SDS011;20422;53.014;8.886;2022-09-21T03:00:26;5.40;;;3.23;;
34144;SDS011;20422;53.014;8.886;2022-09-21T03:02:51;6.63;;;3.95;;
34144;SDS011;20422;53.014;8.886;2022-09-21T03:05:17;7.20;;;3.80;;
34144;SDS011;20422;53.014;8.886;2022-09-21T03:07:42;8.20;;;4.40;;
34144;SDS011;20422;53.014;8.886;2022-09-21T03:10:07;9.43;;;3.70;;
34144;SDS011;20422;53.014;8.886;2022-09-21T03:12:33;5.38;;;3.90;;
34144;SDS011;20422;53.014;8.886;2022-09-21T03:14:58;4.20;;;3.60;;
34144;SDS011;20422;53.014;8.886;2022-09-21T03:17:24;9.52;;;4.28;;
34144;SDS011;20422;53.014;8.886;2022-09-21T03:19:50;9.75;;;4.20;;
34144;SDS011;20422;53.014;8.886;2022-09-21T03:22:18;6.82;;;4.18;;
34144;SDS011;20422;53.014;8.886;2022-09-21T03:24:45;8.93;;;4.05;;
34144;SDS011;20422;53.014;8.886;2022-09-21T03:27:11;11.77;;;4.65;;
34144;SDS011;20422;53.014;8.886;2022-09-21T03:29:41;7.53;;;4.10;;
34144;SDS011;20422;53.014;8.886;2022-09-21T03:32:06;7.60;;;4.20;;
34144;SDS011;20422;53.014;8.886;2022-09-21T03:34:32;4.25;;;3.55;;
34144;SDS011;20422;53.014;8.886;2022-09-21T03:36:58;14.13;;;4.15;;
34144;SDS011;20422;53.014;8.886;2022-09-21T03:39:25;6.72;;;3.75;;
34144;SDS011;20422;53.014;8.886;2022-09-21T03:41:50;7.30;;;4.15;;
34144;SDS011;20422;53.014;8.886;2022-09-21T03:44:16;6.78;;;3.15;;
34144;SDS011;20422;53.014;8.886;2022-09-21T03:46:41;8.25;;;5.15;;
34144;SDS011;20422;53.014;8.886;2022-09-21T03:49:07;5.82;;;3.90;;
34144;SDS011;20422;53.014;8.886;2022-09-21T03:51:32;6.90;;;3.85;;
34144;SDS011;20422;53.014;8.886;2022-09-21T03:53:58;9.63;;;3.90;;
34144;SDS011;20422;53.014;8.886;2022-09-21T03:56:23;6.63;;;3.20;;
34144;SDS011;20422;53.014;8.886;2022-09-21T03:58:48;4.57;;;3.50;;
34144;SDS011;20422;53.014;8.886;2022-09-21T04:01:14;10.80;;;3.78;;
34144;SDS011;20422;53.014;8.886;2022-09-21T04:03:39;6.25;;;3.28;;
34144;SDS011;20422;53.014;8.886;2022-09-21T04:06:08;5.57;;;2.95;;
34144;SDS011;20422;53.014;8.886;2022-09-21T04:08:34;3.85;;;3.22;;
34144;SDS011;20422;53.014;8.886;2022-09-21T04:10:59;6.40;;;3.10;;
34144;SDS011;20422;53.014;8.886;2022-09-21T04:13:24;4.13;;;3.22;;
34144;SDS011;20422;53.014;8.886;2022-09-21T04:15:50;6.47;;;3.30;;
34144;SDS011;20422;53.014;8.886;2022-09-21T04:18:15;7.35;;;3.30;;
34144;SDS011;20422;53.014;8.886;2022-09-21T04:20:40;4.43;;;3.05;;
34144;SDS011;20422;53.014;8.886;2022-09-21T04:23:06;5.70;;;3.58;;
34144;SDS011;20422;53.014;8.886;2022-09-21T04:25:32;6.68;;;3.85;;
34144;SDS011;20422;53.014;8.886;2022-09-21T04:27:57;5.38;;;3.30;;
34144;SDS011;20422;53.014;8.886;2022-09-21T04:30:23;7.97;;;4.00;;
34144;SDS011;20422;53.014;8.886;2022-09-21T04:32:48;5.57;;;3.42;;
34144;SDS011;20422;53.014;8.886;2022-09-21T04:35:13;4.65;;;3.70;;
34144;SDS011;20422;53.014;8.886;2022-09-21T04:37:39;7.32;;;4.13;;
34144;SDS011;20422;53.014;8.886;2022-09-21T04:40:04;8.25;;;3.80;;
34144;SDS011;20422;53.014;8.886;2022-09-21T04:42:30;8.25;;;4.20;;
34144;SDS011;20422;53.014;8.886;2022-09-21T04:44:56;6.90;;;4.10;;
34144;SDS011;20422;53.014;8.886;2022-09-21T04:47:21;5.45;;;3.78;;
34144;SDS011;20422;53.014;8.886;2022-09-21T04:49:49;8.20;;;3.80;;
34144;SDS011;20422;53.014;8.886;2022-09-21T04:52:15;6.40;;;4.18;;
34144;SDS011;20422;53.014;8.886;2022-09-21T04:54:40;7.18;;;3.28;;
34144;SDS011;20422;53.014;8.886;2022-09-21T04:57:06;7.97;;;4.13;;
34144;SDS011;20422;53.014;8.886;2022-09-21T04:59:31;10.10;;;4.30;;
34144;SDS011;20422;53.014;8.886;2022-09-21T05:01:56;6.22;;;3.90;;
34144;SDS011;20422;53.014;8.886;2022-09-21T05:04:21;13.38;;;3.92;;
34144;SDS011;20422;53.014;8.886;2022-09-21T05:06:47;12.73;;;4.60;;
34144;SDS011;20422;53.014;8.886;2022-09-21T05:09:12;6.25;;;3.80;;
34144;SDS011;20422;53.014;8.886;2022-09-21T05:11:56;8.07;;;4.10;;
34144;SDS011;20422;53.014;8.886;2022-09-21T05:14:21;6.93;;;4.35;;
34144;SDS011;20422;53.014;8.886;2022-09-21T05:16:46;7.32;;;4.38;;
34144;SDS011;20422;53.014;8.886;2022-09-21T05:19:13;8.40;;;4.40;;
34144;SDS011;20422;53.014;8.886;2022-09-21T05:21:39;10.68;;;4.90;;
34144;SDS011;20422;53.014;8.886;2022-09-21T05:24:04;5.93;;;4.78;;
34144;SDS011;20422;53.014;8.886;2022-09-21T05:26:30;8.70;;;5.45;;
34144;SDS011;20422;53.014;8.886;2022-09-21T05:28:55;30.60;;;5.93;;
34144;SDS011;20422;53.014;8.886;2022-09-21T05:34:23;14.15;;;5.30;;
34144;SDS011;20422;53.014;8.886;2022-09-21T05:40:02;10.57;;;5.13;;
34144;SDS011;20422;53.014;8.886;2022-09-21T05:42:29;8.25;;;4.90;;
34144;SDS011;20422;53.014;8.886;2022-09-21T05:44:55;10.00;;;5.30;;
34144;SDS011;20422;53.014;8.886;2022-09-21T05:47:35;12.75;;;4.90;;
34144;SDS011;20422;53.014;8.886;2022-09-21T05:55:55;9.13;;;4.63;;
34144;SDS011;20422;53.014;8.886;2022-09-21T06:03:44;8.38;;;5.25;;
34144;SDS011;20422;53.014;8.886;2022-09-21T06:06:12;17.80;;;5.90;;
34144;SDS011;20422;53.014;8.886;2022-09-21T06:08:38;9.82;;;5.57;;
34144;SDS011;20422;53.014;8.886;2022-09-21T06:11:03;12.45;;;5.32;;
34144;SDS011;20422;53.014;8.886;2022-09-21T06:13:29;7.20;;;3.95;;
34144;SDS011;20422;53.014;8.886;2022-09-21T06:15:54;6.43;;;3.80;;
34144;SDS011;20422;53.014;8.886;2022-09-21T06:18:19;7.72;;;3.78;;
34144;SDS011;20422;53.014;8.886;2022-09-21T06:20:45;9.00;;;3.03;;
34144;SDS011;20422;53.014;8.886;2022-09-21T06:23:11;10.90;;;4.13;;
34144;SDS011;20422;53.014;8.886;2022-09-21T06:25:37;6.47;;;3.72;;
34144;SDS011;20422;53.014;8.886;2022-09-21T06:28:10;5.45;;;2.83;;
34144;SDS011;20422;53.014;8.886;2022-09-21T06:30:37;6.70;;;3.53;;
34144;SDS011;20422;53.014;8.886;2022-09-21T06:33:04;4.95;;;3.42;;
34144;SDS011;20422;53.014;8.886;2022-09-21T06:35:31;5.72;;;3.00;;
34144;SDS011;20422;53.014;8.886;2022-09-21T06:38:02;8.73;;;3.08;;
34144;SDS011;20422;53.014;8.886;2022-09-21T06:40:29;6.82;;;3.00;;
34144;SDS011;20422;53.014;8.886;2022-09-21T06:42:57;6.63;;;3.20;;
34144;SDS011;20422;53.014;8.886;2022-09-21T06:45:27;7.78;;;3.45;;
34144;SDS011;20422;53.014;8.886;2022-09-21T06:47:54;5.80;;;3.05;;
34144;SDS011;20422;53.014;8.886;2022-09-21T06:50:19;4.68;;;2.85;;
34144;SDS011;20422;53.014;8.886;2022-09-21T06:52:45;6.13;;;3.17;;
34144;SDS011;20422;53.014;8.886;2022-09-21T06:55:11;9.52;;;3.38;;
34144;SDS011;20422;53.014;8.886;2022-09-21T06:57:37;7.07;;;3.05;;
34144;SDS011;20422;53.014;8.886;2022-09-21T07:00:06;8.40;;;3.13;;
34144;SDS011;20422;53.014;8.886;2022-09-21T07:02:33;6.70;;;2.90;;
34144;SDS011;20422;53.014;8.886;2022-09-21T07:04:59;7.35;;;3.17;;
34144;SDS011;20422;53.014;8.886;2022-09-21T07:07:25;5.00;;;3.10;;
34144;SDS011;20422;53.014;8.886;2022-09-21T07:09:54;11.63;;;3.20;;
34144;SDS011;20422;53.014;8.886;2022-09-21T07:12:19;8.48;;;3.85;;
34144;SDS011;20422;53.014;8.886;2022-09-21T07:14:45;6.50;;;3.55;;
34144;SDS011;20422;53.014;8.886;2022-09-21T07:17:10;7.93;;;3.15;;
34144;SDS011;20422;53.014;8.886;2022-09-21T07:19:38;7.55;;;3.55;;
34144;SDS011;20422;53.014;8.886;2022-09-21T07:22:03;7.57;;;3.15;;
34144;SDS011;20422;53.014;8.886;2022-09-21T07:24:28;4.82;;;2.90;;
34144;SDS011;20422;53.014;8.886;2022-09-21T07:26:54;12.48;;;3.00;;
34144;SDS011;20422;53.014;8.886;2022-09-21T07:29:19;6.10;;;3.45;;
34144;SDS011;20422;53.014;8.886;2022-09-21T07:31:44;5.68;;;3.45;;
34144;SDS011;20422;53.014;8.886;2022-09-21T07:34:10;5.47;;;2.80;;
34144;SDS011;20422;53.014;8.886;2022-09-21T07:36:35;7.30;;;3.45;;
34144;SDS011;20422;53.014;8.886;2022-09-21T07:39:01;6.32;;;3.50;;
34144;SDS011;20422;53.014;8.886;2022-09-21T07:41:27;15.90;;;4.15;;
34144;SDS011;20422;53.014;8.886;2022-09-21T07:43:52;8.60;;;3.35;;
34144;SDS011;20422;53.014;8.886;2022-09-21T07:46:18;6.88;;;3.10;;
34144;SDS011;20422;53.014;8.886;2022-09-21T07:48:44;7.43;;;3.33;;
34144;SDS011;20422;53.014;8.886;2022-09-21T07:51:11;8.18;;;3.05;;
34144;SDS011;20422;53.014;8.886;2022-09-21T07:53:39;7.25;;;4.20;;
34144;SDS011;20422;53.014;8.886;2022-09-21T07:56:06;6.85;;;3.80;;
34144;SDS011;20422;53.014;8.886;2022-09-21T07:58:34;7.20;;;3.97;;
34144;SDS011;20422;53.014;8.886;2022-09-21T08:01:19;10.40;;;3.45;;
34144;SDS011;20422;53.014;8.886;2022-09-21T08:03:47;8.90;;;3.28;;
34144;SDS011;20422;53.014;8.886;2022-09-21T08:06:13;10.02;;;3.70;;
34144;SDS011;20422;53.014;8.886;2022-09-21T08:08:38;7.50;;;3.47;;
34144;SDS011;20422;53.014;8.886;2022-09-21T08:11:05;7.95;;;4.03;;
34144;SDS011;20422;53.014;8.886;2022-09-21T08:13:31;11.02;;;3.75;;
34144;SDS011;20422;53.014;8.886;2022-09-21T08:16:00;6.95;;;2.95;;
34144;SDS011;20422;53.014;8.886;2022-09-21T08:18:27;7.88;;;2.15;;
34144;SDS011;20422;53.014;8.886;2022-09-21T08:20:53;6.07;;;2.38;;
34144;SDS011;20422;53.014;8.886;2022-09-21T08:23:22;7.95;;;2.22;;
34144;SDS011;20422;53.014;8.886;2022-09-21T08:25:48;6.38;;;2.67;;
34144;SDS011;20422;53.014;8.886;2022-09-21T08:28:13;7.53;;;2.20;;
34144;SDS011;20422;53.014;8.886;2022-09-21T08:30:39;5.18;;;2.75;;
34144;SDS011;20422;53.014;8.886;2022-09-21T08:33:05;7.55;;;2.65;;
34144;SDS011;20422;53.014;8.886;2022-09-21T08:35:32;8.75;;;2.20;;
34144;SDS011;20422;53.014;8.886;2022-09-21T08:37:58;8.20;;;2.42;;
34144;SDS011;20422;53.014;8.886;2022-09-21T08:40:24;5.90;;;2.40;;
34144;SDS011;20422;53.014;8.886;2022-09-21T08:42:59;8.57;;;2.00;;
34144;SDS011;20422;53.014;8.886;2022-09-21T08:45:32;11.18;;;1.83;;
34144;SDS011;20422;53.014;8.886;2022-09-21T08:48:02;8.50;;;1.92;;
34144;SDS011;20422;53.014;8.886;2022-09-21T08:50:45;5.68;;;1.50;;
34144;SDS011;20422;53.014;8.886;2022-09-21T08:53:36;6.45;;;1.42;;
34144;SDS011;20422;53.014;8.886;2022-09-21T08:56:04;10.73;;;2.55;;
34144;SDS011;20422;53.014;8.886;2022-09-21T08:58:30;4.63;;;2.17;;
34144;SDS011;20422;53.014;8.886;2022-09-21T09:06:40;8.43;;;1.73;;
34144;SDS011;20422;53.014;8.886;2022-09-21T09:12:19;7.88;;;2.05;;
34144;SDS011;20422;53.014;8.886;2022-09-21T09:20:52;8.57;;;1.42;;
34144;SDS011;20422;53.014;8.886;2022-09-21T09:23:32;4.45;;;1.02;;
34144;SDS011;20422;53.014;8.886;2022-09-21T09:26:03;6.07;;;1.30;;
34144;SDS011;20422;53.014;8.886;2022-09-21T09:28:35;5.88;;;1.65;;
34144;SDS011;20422;53.014;8.886;2022-09-21T09:31:17;10.07;;;1.45;;
34144;SDS011;20422;53.014;8.886;2022-09-21T09:33:51;9.10;;;1.50;;
34144;SDS011;20422;53.014;8.886;2022-09-21T09:36:17;9.02;;;1.70;;
34144;SDS011;20422;53.014;8.886;2022-09-21T09:38:44;9.95;;;1.88;;
34144;SDS011;20422;53.014;8.886;2022-09-21T09:51:34;6.32;;;1.50;;
34144;SDS011;20422;53.014;8.886;2022-09-21T09:54:01;8.57;;;1.70;;
34144;SDS011;20422;53.014;8.886;2022-09-21T09:56:27;3.70;;;1.20;;
34144;SDS011;20422;53.014;8.886;2022-09-21T09:58:56;14.18;;;2.30;;
34144;SDS011;20422;53.014;8.886;2022-09-21T10:01:34;6.35;;;1.48;;
34144;SDS011;20422;53.014;8.886;2022-09-21T10:04:05;9.43;;;1.60;;
34144;SDS011;20422;53.014;8.886;2022-09-21T10:06:36;6.43;;;1.55;;
34144;SDS011;20422;53.014;8.886;2022-09-21T10:12:02;14.17;;;1.63;;
34144;SDS011;20422;53.014;8.886;2022-09-21T10:14:43;4.70;;;1.27;;
34144;SDS011;20422;53.014;8.886;2022-09-21T10:17:14;6.88;;;1.50;;
34144;SDS011;20422;53.014;8.886;2022-09-21T10:19:41;6.82;;;1.63;;
34144;SDS011;20422;53.014;8.886;2022-09-21T10:22:12;10.48;;;1.52;;
34144;SDS011;20422;53.014;8.886;2022-09-21T10:24:40;7.13;;;1.63;;
34144;SDS011;20422;53.014;8.886;2022-09-21T10:27:21;6.45;;;1.52;;
34144;SDS011;20422;53.014;8.886;2022-09-21T10:29:53;7.78;;;1.88;;
34144;SDS011;20422;53.014;8.886;2022-09-21T10:37:36;5.93;;;1.00;;
34144;SDS011;20422;53.014;8.886;2022-09-21T10:42:46;7.55;;;1.42;;
34144;SDS011;20422;53.014;8.886;2022-09-21T10:45:18;6.78;;;1.60;;
34144;SDS011;20422;53.014;8.886;2022-09-21T10:47:55;6.10;;;1.60;;
34144;SDS011;20422;53.014;8.886;2022-09-21T10:55:32;3.35;;;1.10;;
34144;SDS011;20422;53.014;8.886;2022-09-21T10:58:02;6.78;;;1.33;;
34144;SDS011;20422;53.014;8.886;2022-09-21T11:00:39;5.70;;;1.33;;
34144;SDS011;20422;53.014;8.886;2022-09-21T11:03:52;5.68;;;1.30;;
34144;SDS011;20422;53.014;8.886;2022-09-21T11:06:21;6.35;;;1.38;;
34144;SDS011;20422;53.014;8.886;2022-09-21T11:09:04;5.47;;;1.25;;
34144;SDS011;20422;53.014;8.886;2022-09-21T11:14:15;8.65;;;1.25;;
34144;SDS011;20422;53.014;8.886;2022-09-21T11:16:46;5.15;;;1.08;;
34144;SDS011;20422;53.014;8.886;2022-09-21T11:24:19;8.95;;;1.38;;
34144;SDS011;20422;53.014;8.886;2022-09-21T11:27:02;5.40;;;1.00;;
34144;SDS011;20422;53.014;8.886;2022-09-21T11:29:44;7.00;;;1.25;;
34144;SDS011;20422;53.014;8.886;2022-09-21T11:32:24;6.32;;;1.90;;
34144;SDS011;20422;53.014;8.886;2022-09-21T11:35:15;8.88;;;1.25;;
34144;SDS011;20422;53.014;8.886;2022-09-21T11:43:07;8.48;;;1.40;;
34144;SDS011;20422;53.014;8.886;2022-09-21T11:48:15;7.77;;;1.20;;
34144;SDS011;20422;53.014;8.886;2022-09-21T11:56:43;10.95;;;1.50;;
34144;SDS011;20422;53.014;8.886;2022-09-21T11:59:25;5.38;;;1.15;;
34144;SDS011;20422;53.014;8.886;2022-09-21T12:10:38;7.97;;;1.73;;
34144;SDS011;20422;53.014;8.886;2022-09-21T12:15:55;5.90;;;1.40;;
34144;SDS011;20422;53.014;8.886;2022-09-21T12:21:32;7.10;;;1.67;;
34144;SDS011;20422;53.014;8.886;2022-09-21T12:24:02;6.95;;;0.98;;
34144;SDS011;20422;53.014;8.886;2022-09-21T12:26:35;6.32;;;0.80;;
34144;SDS011;20422;53.014;8.886;2022-09-21T12:32:07;5.85;;;1.23;;
34144;SDS011;20422;53.014;8.886;2022-09-21T12:34:50;6.78;;;1.15;;
34144;SDS011;20422;53.014;8.886;2022-09-21T12:37:29;2.53;;;1.08;;
34144;SDS011;20422;53.014;8.886;2022-09-21T12:40:02;5.53;;;1.20;;
34144;SDS011;20422;53.014;8.886;2022-09-21T12:42:40;9.25;;;1.35;;
34144;SDS011;20422;53.014;8.886;2022-09-21T12:45:13;4.88;;;1.23;;
34144;SDS011;20422;53.014;8.886;2022-09-21T12:48:00;4.72;;;1.60;;
34144;SDS011;20422;53.014;8.886;2022-09-21T12:50:51;2.47;;;0.70;;
34144;SDS011;20422;53.014;8.886;2022-09-21T12:53:21;3.15;;;0.98;;
34144;SDS011;20422;53.014;8.886;2022-09-21T13:03:34;3.58;;;0.90;;
34144;SDS011;20422;53.014;8.886;2022-09-21T13:08:54;6.63;;;1.25;;
34144;SDS011;20422;53.014;8.886;2022-09-21T13:11:24;4.55;;;0.70;;
34144;SDS011;20422;53.014;8.886;2022-09-21T13:13:51;4.43;;;1.55;;
34144;SDS011;20422;53.014;8.886;2022-09-21T13:16:23;6.30;;;1.17;;
34144;SDS011;20422;53.014;8.886;2022-09-21T13:18:57;3.17;;;0.95;;
34144;SDS011;20422;53.014;8.886;2022-09-21T13:21:26;5.88;;;1.13;;
34144;SDS011;20422;53.014;8.886;2022-09-21T13:23:57;3.80;;;0.93;;
34144;SDS011;20422;53.014;8.886;2022-09-21T13:26:28;4.25;;;1.10;;
34144;SDS011;20422;53.014;8.886;2022-09-21T13:31:29;4.20;;;1.20;;
34144;SDS011;20422;53.014;8.886;2022-09-21T13:34:29;1.52;;;0.55;;
34144;SDS011;20422;53.014;8.886;2022-09-21T13:44:53;2.95;;;1.00;;
34144;SDS011;20422;53.014;8.886;2022-09-21T13:47:29;8.23;;;0.88;;
34144;SDS011;20422;53.014;8.886;2022-09-21T13:49:57;4.70;;;0.80;;
34144;SDS011;20422;53.014;8.886;2022-09-21T13:52:32;4.80;;;0.80;;
34144;SDS011;20422;53.014;8.886;2022-09-21T13:55:00;1.73;;;0.80;;
34144;SDS011;20422;53.014;8.886;2022-09-21T14:00:30;2.85;;;1.45;;
34144;SDS011;20422;53.014;8.886;2022-09-21T14:03:00;3.58;;;1.00;;
34144;SDS011;20422;53.014;8.886;2022-09-21T14:05:34;2.22;;;0.82;;
34144;SDS011;20422;53.014;8.886;2022-09-21T14:11:02;6.75;;;1.08;;
34144;SDS011;20422;53.014;8.886;2022-09-21T14:22:31;1.92;;;0.70;;
34144;SDS011;20422;53.014;8.886;2022-09-21T14:32:32;4.88;;;0.77;;
34144;SDS011;20422;53.014;8.886;2022-09-21T14:35:08;3.55;;;0.60;;
34144;SDS011;20422;53.014;8.886;2022-09-21T14:37:40;4.45;;;1.40;;
34144;SDS011;20422;53.014;8.886;2022-09-21T14:40:26;6.28;;;1.00;;
34144;SDS011;20422;53.014;8.886;2022-09-21T14:42:56;6.05;;;1.30;;
34144;SDS011;20422;53.014;8.886;2022-09-21T14:45:52;3.35;;;1.10;;
34144;SDS011;20422;53.014;8.886;2022-09-21T14:48:25;4.43;;;1.00;;
34144;SDS011;20422;53.014;8.886;2022-09-21T14:50:59;6.22;;;1.08;;
34144;SDS011;20422;53.014;8.886;2022-09-21T14:56:41;3.72;;;0.95;;
34144;SDS011;20422;53.014;8.886;2022-09-21T15:02:10;8.88;;;1.38;;
34144;SDS011;20422;53.014;8.886;2022-09-21T15:10:36;3.85;;;1.05;;
34144;SDS011;20422;53.014;8.886;2022-09-21T15:16:31;2.92;;;1.08;;
34144;SDS011;20422;53.014;8.886;2022-09-21T15:21:52;6.95;;;0.98;;
34144;SDS011;20422;53.014;8.886;2022-09-21T15:24:35;6.32;;;1.30;;
34144;SDS011;20422;53.014;8.886;2022-09-21T15:27:08;7.57;;;1.20;;
34144;SDS011;20422;53.014;8.886;2022-09-21T15:29:38;6.88;;;0.90;;
34144;SDS011;20422;53.014;8.886;2022-09-21T15:32:15;2.00;;;0.77;;
34144;SDS011;20422;53.014;8.886;2022-09-21T15:34:55;3.35;;;0.95;;
34144;SDS011;20422;53.014;8.886;2022-09-21T15:37:23;10.13;;;1.20;;
34144;SDS011;20422;53.014;8.886;2022-09-21T15:39:57;4.28;;;0.85;;
34144;SDS011;20422;53.014;8.886;2022-09-21T15:42:25;1.83;;;0.82;;
34144;SDS011;20422;53.014;8.886;2022-09-21T15:44:53;2.88;;;0.60;;
34144;SDS011;20422;53.014;8.886;2022-09-21T15:47:34;2.28;;;0.73;;
34144;SDS011;20422;53.014;8.886;2022-09-21T15:50:01;3.28;;;1.05;;
34144;SDS011;20422;53.014;8.886;2022-09-21T15:52:37;4.13;;;1.05;;
34144;SDS011;20422;53.014;8.886;2022-09-21T15:55:12;3.38;;;0.90;;
34144;SDS011;20422;53.014;8.886;2022-09-21T15:57:43;2.05;;;1.00;;
34144;SDS011;20422;53.014;8.886;2022-09-21T16:00:16;4.93;;;1.30;;
34144;SDS011;20422;53.014;8.886;2022-09-21T16:02:54;3.53;;;0.75;;
34144;SDS011;20422;53.014;8.886;2022-09-21T16:05:44;3.50;;;0.82;;
34144;SDS011;20422;53.014;8.886;2022-09-21T16:08:17;4.15;;;0.70;;
34144;SDS011;20422;53.014;8.886;2022-09-21T16:10:46;4.65;;;1.13;;
34144;SDS011;20422;53.014;8.886;2022-09-21T16:13:22;3.30;;;0.90;;
34144;SDS011;20422;53.014;8.886;2022-09-21T16:16:10;3.92;;;0.95;;
34144;SDS011;20422;53.014;8.886;2022-09-21T16:18:44;6.40;;;0.93;;
34144;SDS011;20422;53.014;8.886;2022-09-21T16:21:27;4.70;;;1.13;;
34144;SDS011;20422;53.014;8.886;2022-09-21T16:24:06;4.20;;;0.98;;
34144;SDS011;20422;53.014;8.886;2022-09-21T16:26:54;3.55;;;0.90;;
34144;SDS011;20422;53.014;8.886;2022-09-21T16:29:24;3.83;;;0.70;;
34144;SDS011;20422;53.014;8.886;2022-09-21T16:31:51;4.88;;;0.70;;
34144;SDS011;20422;53.014;8.886;2022-09-21T16:34:42;5.30;;;0.77;;
34144;SDS011;20422;53.014;8.886;2022-09-21T16:39:53;5.75;;;1.02;;
34144;SDS011;20422;53.014;8.886;2022-09-21T16:42:20;2.83;;;0.95;;
34144;SDS011;20422;53.014;8.886;2022-09-21T16:44:47;5.15;;;0.70;;
34144;SDS011;20422;53.014;8.886;2022-09-21T16:47:14;7.13;;;1.52;;
34144;SDS011;20422;53.014;8.886;2022-09-21T16:49:41;1.75;;;0.90;;
34144;SDS011;20422;53.014;8.886;2022-09-21T16:52:07;4.40;;;0.88;;
34144;SDS011;20422;53.014;8.886;2022-09-21T16:54:33;3.35;;;1.00;;
34144;SDS011;20422;53.014;8.886;2022-09-21T16:57:01;11.73;;;4.30;;
34144;SDS011;20422;53.014;8.886;2022-09-21T16:59:28;2.67;;;0.85;;
34144;SDS011;20422;53.014;8.886;2022-09-21T17:01:54;4.88;;;0.95;;
34144;SDS011;20422;53.014;8.886;2022-09-21T17:04:22;7.80;;;1.30;;
34144;SDS011;20422;53.014;8.886;2022-09-21T17:06:52;3.15;;;1.40;;
34144;SDS011;20422;53.014;8.886;2022-09-21T17:09:20;5.13;;;1.60;;
34144;SDS011;20422;53.014;8.886;2022-09-21T17:11:47;11.35;;;5.82;;
34144;SDS011;20422;53.014;8.886;2022-09-21T17:14:15;14.00;;;6.00;;
34144;SDS011;20422;53.014;8.886;2022-09-21T17:16:44;4.35;;;2.25;;
34144;SDS011;20422;53.014;8.886;2022-09-21T17:19:11;6.68;;;2.15;;
34144;SDS011;20422;53.014;8.886;2022-09-21T17:21:37;4.63;;;2.28;;
34144;SDS011;20422;53.014;8.886;2022-09-21T17:24:02;9.77;;;1.63;;
34144;SDS011;20422;53.014;8.886;2022-09-21T17:26:28;4.25;;;1.02;;
34144;SDS011;20422;53.014;8.886;2022-09-21T17:28:54;7.63;;;1.05;;
34144;SDS011;20422;53.014;8.886;2022-09-21T17:31:19;5.70;;;1.10;;
34144;SDS011;20422;53.014;8.886;2022-09-21T17:33:48;7.07;;;1.10;;
34144;SDS011;20422;53.014;8.886;2022-09-21T17:36:14;3.95;;;1.85;;
34144;SDS011;20422;53.014;8.886;2022-09-21T17:38:41;5.82;;;1.10;;
34144;SDS011;20422;53.014;8.886;2022-09-21T17:41:23;3.72;;;1.00;;
34144;SDS011;20422;53.014;8.886;2022-09-21T17:44:02;6.95;;;3.15;;
34144;SDS011;20422;53.014;8.886;2022-09-21T17:49:25;3.57;;;1.33;;
34144;SDS011;20422;53.014;8.886;2022-09-21T17:51:50;6.22;;;1.40;;
34144;SDS011;20422;53.014;8.886;2022-09-21T17:54:34;4.10;;;1.42;;
34144;SDS011;20422;53.014;8.886;2022-09-21T17:59:47;7.38;;;1.27;;
34144;SDS011;20422;53.014;8.886;2022-09-21T18:02:21;4.10;;;1.08;;
34144;SDS011;20422;53.014;8.886;2022-09-21T18:04:49;3.42;;;1.02;;
34144;SDS011;20422;53.014;8.886;2022-09-21T18:07:17;5.50;;;1.50;;
34144;SDS011;20422;53.014;8.886;2022-09-21T18:09:43;4.05;;;1.02;;
34144;SDS011;20422;53.014;8.886;2022-09-21T18:25:46;5.28;;;1.35;;
34144;SDS011;20422;53.014;8.886;2022-09-21T18:33:44;5.00;;;1.20;;
34144;SDS011;20422;53.014;8.886;2022-09-21T18:41:59;4.47;;;1.45;;
34144;SDS011;20422;53.014;8.886;2022-09-21T18:44:35;7.47;;;1.88;;